createdAt,value
2022-09-12T00:01:19.686Z,101494.16
2022-09-12T00:03:46.709Z,101493.88
2022-09-12T00:06:21.962Z,101489.19
2022-09-12T00:08:50.110Z,101494.97
2022-09-12T00:11:16.700Z,101493.16
2022-09-12T00:13:43.849Z,101498.59
2022-09-12T00:16:22.897Z,101488.47
2022-09-12T00:18:49.964Z,101493.25
2022-09-12T00:21:18.111Z,101487.56
2022-09-12T00:23:45.396Z,101486.09
2022-09-12T00:26:12.955Z,101483.50
2022-09-12T00:28:41.095Z,101481.22
2022-09-12T00:31:14.421Z,101479.00
2022-09-12T00:33:41.994Z,101481.94
2022-09-12T00:36:15.265Z,101481.50
2022-09-12T00:38:43.622Z,101473.66
2022-09-12T00:41:22.291Z,101464.72
2022-09-12T00:43:52.022Z,101475.38
2022-09-12T00:46:48.688Z,101464.91
2022-09-12T00:49:23.929Z,101455.78
2022-09-12T00:52:03.471Z,101465.16
2022-09-12T00:54:47.553Z,101462.88
2022-09-12T00:57:16.564Z,101462.25
2022-09-12T00:59:58.416Z,101467.47
2022-09-12T01:02:25.423Z,101463.22
2022-09-12T01:04:52.807Z,101469.78
2022-09-12T01:07:21.341Z,101464.13
2022-09-12T01:09:48.139Z,101460.25
2022-09-12T01:12:16.017Z,101462.03
2022-09-12T01:14:42.876Z,101460.59
2022-09-12T01:17:13.034Z,101461.13
2022-09-12T01:20:29.540Z,101463.25
2022-09-12T01:22:59.103Z,101462.59
2022-09-12T01:25:58.771Z,101464.59
2022-09-12T01:28:34.240Z,101457.28
2022-09-12T01:31:13.460Z,101458.59
2022-09-12T01:33:42.701Z,101455.34
2022-09-12T01:36:49.580Z,101454.34
2022-09-12T01:39:29.258Z,101456.31
2022-09-12T01:42:04.686Z,101453.06
2022-09-12T01:44:37.166Z,101458.47
2022-09-12T01:47:15.760Z,101458.81
2022-09-12T01:50:06.966Z,101450.69
2022-09-12T01:52:42.612Z,101449.22
2022-09-12T01:55:21.704Z,101445.16
2022-09-12T01:57:57.596Z,101443.72
2022-09-12T02:00:24.371Z,101442.28
2022-09-12T02:03:14.849Z,101443.44
2022-09-12T02:05:48.976Z,101435.94
2022-09-12T02:08:31.457Z,101434.31
2022-09-12T02:11:04.595Z,101437.09
2022-09-12T02:13:33.767Z,101435.81
2022-09-12T02:16:09.546Z,101427.69
2022-09-12T02:18:40.639Z,101435.53
2022-09-12T02:21:07.966Z,101437.31
2022-09-12T02:23:41.077Z,101433.88
2022-09-12T02:26:15.238Z,101430.63
2022-09-12T02:28:43.596Z,101429.03
2022-09-12T02:31:32.298Z,101422.19
2022-09-12T02:34:11.698Z,101423.31
2022-09-12T02:37:16.432Z,101421.22
2022-09-12T02:39:45.315Z,101414.75
2022-09-12T02:42:13.349Z,101425.69
2022-09-12T02:44:40.579Z,101419.00
2022-09-12T02:47:28.284Z,101417.22
2022-09-12T02:49:56.386Z,101407.13
2022-09-12T02:52:23.404Z,101394.28
2022-09-12T02:54:51.079Z,101387.59
2022-09-12T02:57:22.791Z,101389.72
2022-09-12T02:59:52.948Z,101387.47
2022-09-12T03:02:38.287Z,101386.84
2022-09-12T03:05:21.729Z,101393.34
2022-09-12T03:08:13.381Z,101379.03
2022-09-12T03:11:02.900Z,101377.44
2022-09-12T03:13:54.294Z,101383.63
2022-09-12T03:16:43.680Z,101386.22
2022-09-12T03:19:29.427Z,101377.59
2022-09-12T03:22:15.732Z,101378.72
2022-09-12T03:25:02.850Z,101379.88
2022-09-12T03:27:38.942Z,101378.59
2022-09-12T03:30:06.767Z,101376.81
2022-09-12T03:32:50.159Z,101383.63
2022-09-12T03:35:22.825Z,101381.19
2022-09-12T03:37:51.039Z,101376.50
2022-09-12T03:40:17.847Z,101373.25
2022-09-12T03:42:44.588Z,101370.84
2022-09-12T03:45:11.914Z,101375.72
2022-09-12T03:47:38.463Z,101374.25
2022-09-12T03:50:06.550Z,101372.00
2022-09-12T03:52:33.590Z,101373.63
2022-09-12T03:55:00.374Z,101369.56
2022-09-12T03:57:26.895Z,101372.16
2022-09-12T03:59:53.391Z,101372.16
2022-09-12T04:02:20.026Z,101366.13
2022-09-12T04:04:48.768Z,101363.69
2022-09-12T04:07:16.732Z,101357.66
2022-09-12T04:09:43.775Z,101362.03
2022-09-12T04:12:10.341Z,101361.22
2022-09-12T04:14:36.954Z,101362.03
2022-09-12T04:17:03.742Z,101356.84
2022-09-12T04:19:30.265Z,101358.63
2022-09-12T04:21:57.003Z,101356.84
2022-09-12T04:24:23.539Z,101357.84
2022-09-12T04:26:50.210Z,101356.19
2022-09-12T04:29:16.803Z,101356.19
2022-09-12T04:31:43.550Z,101357.84
2022-09-12T04:34:10.422Z,101354.56
2022-09-12T04:36:37.827Z,101356.38
2022-09-12T04:39:05.492Z,101359.75
2022-09-12T04:41:38.444Z,101358.16
2022-09-12T04:44:14.436Z,101355.56
2022-09-12T04:46:45.783Z,101358.16
2022-09-12T04:49:14.065Z,101359.75
2022-09-12T04:51:42.446Z,101356.19
2022-09-12T04:54:15.937Z,101348.56
2022-09-12T04:56:44.587Z,101351.16
2022-09-12T04:59:13.247Z,101348.56
2022-09-12T05:01:40.369Z,101351.94
2022-09-12T05:04:07.429Z,101346.75
2022-09-12T05:06:36.091Z,101352.75
2022-09-12T05:09:05.825Z,101341.22
2022-09-12T05:12:02.823Z,101343.00
2022-09-12T05:14:24.376Z,101334.56
2022-09-12T05:16:51.134Z,101341.03
2022-09-12T05:19:17.750Z,101341.50
2022-09-12T05:21:44.451Z,101335.13
2022-09-12T05:24:11.588Z,101339.69
2022-09-12T05:26:39.231Z,101345.03
2022-09-12T05:29:07.092Z,101348.75
2022-09-12T05:31:34.887Z,101338.78
2022-09-12T05:34:05.885Z,101341.53
2022-09-12T05:36:32.933Z,101343.28
2022-09-12T05:39:00.648Z,101347.66
2022-09-12T05:41:30.728Z,101350.19
2022-09-12T05:43:59.913Z,101340.69
2022-09-12T05:46:29.490Z,101344.69
2022-09-12T05:48:56.850Z,101350.50
2022-09-12T05:51:29.122Z,101347.47
2022-09-12T05:53:57.682Z,101344.44
2022-09-12T05:56:27.363Z,101352.06
2022-09-12T05:59:14.631Z,101346.88
2022-09-12T06:01:41.644Z,101351.03
2022-09-12T06:04:09.776Z,101359.88
2022-09-12T06:06:41.511Z,101357.78
2022-09-12T06:09:08.499Z,101354.63
2022-09-12T06:11:37.365Z,101352.91
2022-09-12T06:14:04.648Z,101354.41
2022-09-12T06:16:33.317Z,101359.91
2022-09-12T06:19:02.410Z,101354.50
2022-09-12T06:21:31.215Z,101362.97
2022-09-12T06:23:58.979Z,101358.72
2022-09-12T06:26:28.027Z,101361.34
2022-09-12T06:28:56.083Z,101356.72
2022-09-12T06:31:36.450Z,101361.78
2022-09-12T06:34:05.914Z,101357.34
2022-09-12T06:36:37.788Z,101358.16
2022-09-12T06:39:09.917Z,101366.63
2022-09-12T06:41:39.408Z,101363.84
2022-09-12T06:44:16.177Z,101356.00
2022-09-12T06:46:43.167Z,101363.47
2022-09-12T06:49:10.076Z,101361.31
2022-09-12T06:51:37.877Z,101360.91
2022-09-12T06:54:05.483Z,101367.41
2022-09-12T06:56:32.100Z,101359.38
2022-09-12T06:58:59.471Z,101350.53
2022-09-12T07:01:31.067Z,101360.81
2022-09-12T07:04:00.388Z,101356.19
2022-09-12T07:06:31.892Z,101352.59
2022-09-12T07:09:00.117Z,101346.97
2022-09-12T07:11:30.544Z,101349.41
2022-09-12T07:13:59.172Z,101354.25
2022-09-12T07:16:25.848Z,101347.81
2022-09-12T07:18:54.967Z,101349.06
2022-09-12T07:21:21.900Z,101349.50
2022-09-12T07:23:49.266Z,101347.97
2022-09-12T07:26:16.587Z,101351.00
2022-09-12T07:28:43.780Z,101350.69
2022-09-12T07:31:16.406Z,101347.53
2022-09-12T07:33:44.112Z,101343.44
2022-09-12T07:36:14.145Z,101351.75
2022-09-12T07:38:41.348Z,101350.59
2022-09-12T07:41:12.790Z,101353.88
2022-09-12T07:43:39.488Z,101344.25
2022-09-12T07:46:06.596Z,101345.09
2022-09-12T07:48:33.897Z,101352.78
2022-09-12T07:51:02.152Z,101338.91
2022-09-12T07:53:34.409Z,101343.16
2022-09-12T07:56:01.083Z,101340.38
2022-09-12T07:58:27.615Z,101333.34
2022-09-12T08:00:54.167Z,101338.03
2022-09-12T08:03:20.918Z,101329.00
2022-09-12T08:05:47.400Z,101329.81
2022-09-12T08:08:14.009Z,101335.69
2022-09-12T08:10:40.518Z,101336.13
2022-09-12T08:13:10.644Z,101332.28
2022-09-12T08:15:37.451Z,101336.13
2022-09-12T08:18:04.197Z,101338.38
2022-09-12T08:20:31.019Z,101338.16
2022-09-12T08:22:57.535Z,101343.63
2022-09-12T08:25:24.208Z,101343.44
2022-09-12T08:27:50.745Z,101346.25
2022-09-12T08:30:17.376Z,101346.84
2022-09-12T08:32:43.943Z,101347.44
2022-09-12T08:35:10.497Z,101345.03
2022-09-12T08:37:37.073Z,101340.59
2022-09-12T08:40:06.776Z,101342.19
2022-09-12T08:43:14.230Z,101351.25
2022-09-12T08:45:54.517Z,101345.78
2022-09-12T08:48:21.291Z,101348.41
2022-09-12T08:50:49.967Z,101345.31
2022-09-12T08:53:21.492Z,101340.59
2022-09-12T08:55:56.368Z,101336.09
2022-09-12T08:58:24.867Z,101338.69
2022-09-12T09:01:19.839Z,101332.72
2022-09-12T09:04:20.665Z,101335.84
2022-09-12T09:06:53.189Z,101336.38
2022-09-12T09:09:57.372Z,101329.94
2022-09-12T09:12:38.669Z,101326.13
2022-09-12T09:15:27.006Z,101329.44
2022-09-12T09:18:10.849Z,101323.44
2022-09-12T09:20:47.207Z,101327.78
2022-09-12T09:23:21.939Z,101319.78
2022-09-12T09:26:26.500Z,101318.91
2022-09-12T09:29:04.883Z,101307.03
2022-09-12T09:31:37.674Z,101306.16
2022-09-12T09:34:14.051Z,101310.81
2022-09-12T09:36:57.872Z,101306.69
2022-09-12T09:39:28.792Z,101312.00
2022-09-12T09:42:10.445Z,101305.53
2022-09-12T09:44:37.917Z,101303.13
2022-09-12T09:47:05.340Z,101296.84
2022-09-12T09:49:34.421Z,101300.63
2022-09-12T09:52:02.518Z,101304.00
2022-09-12T09:54:44.606Z,101296.91
2022-09-12T09:57:44.624Z,101291.81
2022-09-12T10:00:29.820Z,101294.09
2022-09-12T10:03:14.929Z,101283.22
2022-09-12T10:05:48.632Z,101285.25
2022-09-12T10:08:32.645Z,101281.34
2022-09-12T10:11:20.844Z,101272.13
2022-09-12T10:13:51.175Z,101268.47
2022-09-12T10:16:22.615Z,101267.41
2022-09-12T10:18:52.454Z,101265.22
2022-09-12T10:21:29.626Z,101262.09
2022-09-12T10:24:06.611Z,101266.13
2022-09-12T10:26:37.568Z,101259.88
2022-09-12T10:29:16.107Z,101269.78
2022-09-12T10:31:55.596Z,101257.44
2022-09-12T10:34:31.118Z,101243.94
2022-09-12T10:37:04.585Z,101244.28
2022-09-12T10:39:33.441Z,101237.47
2022-09-12T10:42:01.431Z,101235.41
2022-09-12T10:44:31.014Z,101237.03
2022-09-12T10:46:59.031Z,101232.84
2022-09-12T10:49:29.617Z,101223.31
2022-09-12T10:51:59.695Z,101227.81
2022-09-12T10:54:28.595Z,101228.25
2022-09-12T10:57:06.829Z,101231.47
2022-09-12T11:00:27.763Z,101226.75
2022-09-12T11:02:59.414Z,101227.66
2022-09-12T11:05:44.072Z,101228.56
2022-09-12T11:08:13.259Z,101229.44
2022-09-12T11:10:54.541Z,101230.00
2022-09-12T11:13:29.983Z,101223.16
2022-09-12T11:16:11.623Z,101217.66
2022-09-12T11:18:45.018Z,101218.22
2022-09-12T11:21:23.839Z,101216.97
2022-09-12T11:24:12.939Z,101214.06
2022-09-12T11:26:53.331Z,101205.88
2022-09-12T11:29:47.252Z,101200.44
2022-09-12T11:32:16.767Z,101203.22
2022-09-12T11:35:31.289Z,101204.59
2022-09-12T11:38:16.333Z,101204.66
2022-09-12T11:40:46.484Z,101205.31
2022-09-12T11:43:25.968Z,101203.28
2022-09-12T11:45:53.346Z,101198.72
2022-09-12T11:48:49.197Z,101195.81
2022-09-12T11:51:33.148Z,101191.50
2022-09-12T11:54:14.099Z,101188.72
2022-09-12T11:56:46.336Z,101193.44
2022-09-12T11:59:26.024Z,101182.91
2022-09-12T12:01:59.677Z,101177.47
2022-09-12T12:04:37.070Z,101174.16
2022-09-12T12:07:11.378Z,101176.19
2022-09-12T12:09:50.316Z,101175.16
2022-09-12T12:12:25.008Z,101173.53
2022-09-12T12:14:54.834Z,101169.66
2022-09-12T12:17:24.429Z,101169.69
2022-09-12T12:20:05.563Z,101173.59
2022-09-12T12:22:34.272Z,101181.75
2022-09-12T12:25:12.802Z,101181.00
2022-09-12T12:27:47.454Z,101173.66
2022-09-12T12:30:29.408Z,101160.16
2022-09-12T12:33:13.001Z,101168.28
2022-09-12T12:35:46.834Z,101167.91
2022-09-12T12:38:32.115Z,101155.97
2022-09-12T12:41:17.032Z,101155.09
2022-09-12T12:43:51.504Z,101158.91
2022-09-12T12:46:26.848Z,101162.59
2022-09-12T12:48:59.951Z,101154.38
2022-09-12T12:51:31.864Z,101149.06
2022-09-12T12:54:01.177Z,101152.47
2022-09-12T12:56:42.419Z,101147.38
2022-09-12T12:59:17.936Z,101131.72
2022-09-12T13:01:51.538Z,101135.19
2022-09-12T13:04:24.777Z,101129.91
2022-09-12T13:07:07.206Z,101133.91
2022-09-12T13:09:39.653Z,101125.19
2022-09-12T13:12:06.264Z,101128.44
2022-09-12T13:14:53.977Z,101129.53
2022-09-12T13:17:35.690Z,101117.00
2022-09-12T13:20:29.729Z,101108.78
2022-09-12T13:22:57.746Z,101109.88
2022-09-12T13:25:37.069Z,101110.19
2022-09-12T13:28:11.500Z,101099.53
2022-09-12T13:30:42.626Z,101102.94
2022-09-12T13:33:23.603Z,101096.22
2022-09-12T13:35:59.025Z,101094.06
2022-09-12T13:38:36.963Z,101090.09
2022-09-12T13:41:45.460Z,101085.38
2022-09-12T13:44:15.987Z,101079.31
2022-09-12T13:46:42.798Z,101083.06
2022-09-12T13:49:28.259Z,101071.63
2022-09-12T13:52:23.077Z,101072.13
2022-09-12T13:54:54.121Z,101066.59
2022-09-12T13:57:30.626Z,101065.25
2022-09-12T13:59:58.978Z,101060.22
2022-09-12T14:02:28.844Z,101056.25
2022-09-12T14:05:11.480Z,101052.03
2022-09-12T14:07:56.123Z,101048.81
2022-09-12T14:10:33.572Z,101038.44
2022-09-12T14:13:02.800Z,101037.41
2022-09-12T14:15:32.253Z,101032.34
2022-09-12T14:18:01.526Z,101030.25
2022-09-12T14:20:33.807Z,101026.53
2022-09-12T14:23:04.238Z,101033.19
2022-09-12T14:25:41.104Z,101025.19
2022-09-12T14:28:13.560Z,101034.75
2022-09-12T14:30:40.836Z,101029.44
2022-09-12T14:33:10.178Z,101024.38
2022-09-12T14:35:44.502Z,101014.56
2022-09-12T14:38:16.860Z,101026.25
2022-09-12T14:41:10.784Z,101018.06
2022-09-12T14:43:42.544Z,101022.31
2022-09-12T14:46:39.698Z,101022.53
2022-09-12T14:49:21.111Z,101018.28
2022-09-12T14:51:51.501Z,101016.63
2022-09-12T14:54:40.184Z,101015.75
2022-09-12T14:57:28.075Z,101021.06
2022-09-12T15:00:09.570Z,101016.78
2022-09-12T15:02:36.109Z,101022.91
2022-09-12T15:05:08.952Z,101014.13
2022-09-12T15:07:41.068Z,101015.94
2022-09-12T15:10:27.934Z,101013.19
2022-09-12T15:13:09.482Z,101016.84
2022-09-12T15:15:38.122Z,101007.53
2022-09-12T15:18:06.818Z,101008.84
2022-09-12T15:20:36.445Z,101007.78
2022-09-12T15:23:03.303Z,101007.78
2022-09-12T15:25:29.861Z,101001.91
2022-09-12T15:27:56.518Z,101001.16
2022-09-12T15:30:23.092Z,100998.69
2022-09-12T15:32:49.714Z,100997.09
2022-09-12T15:35:18.025Z,100997.34
2022-09-12T15:37:45.275Z,100979.59
2022-09-12T15:40:13.198Z,100984.09
2022-09-12T15:42:40.250Z,100987.00
2022-09-12T15:45:27.736Z,100987.00
2022-09-12T15:47:55.374Z,100989.91
2022-09-12T15:50:22.104Z,100980.88
2022-09-12T15:52:48.741Z,100979.03
2022-09-12T15:55:18.736Z,100970.53
2022-09-12T15:57:45.799Z,100968.69
2022-09-12T16:00:14.156Z,100966.28
2022-09-12T16:02:40.985Z,100962.03
2022-09-12T16:05:17.331Z,100959.88
2022-09-12T16:07:44.651Z,100960.38
2022-09-12T16:10:16.378Z,100956.63
2022-09-12T16:12:43.345Z,100962.41
2022-09-12T16:15:16.896Z,100950.72
2022-09-12T16:17:43.427Z,100947.78
2022-09-12T16:20:10.479Z,100942.72
2022-09-12T16:22:37.482Z,100946.09
2022-09-12T16:25:05.050Z,100936.03
2022-09-12T16:27:32.567Z,100934.66
2022-09-12T16:29:59.273Z,100933.53
2022-09-12T16:32:25.879Z,100929.00
2022-09-12T16:34:52.889Z,100926.59
2022-09-12T16:37:19.458Z,100926.59
2022-09-12T16:39:46.440Z,100918.91
2022-09-12T16:42:13.113Z,100918.38
2022-09-12T16:44:39.604Z,100924.94
2022-09-12T16:47:07.142Z,100913.00
2022-09-12T16:49:33.715Z,100920.41
2022-09-12T16:52:00.288Z,100921.13
2022-09-12T16:54:26.814Z,100920.00
2022-09-12T16:56:53.315Z,100906.69
2022-09-12T16:59:19.837Z,100901.63
2022-09-12T17:01:46.526Z,100891.78
2022-09-12T17:04:13.152Z,100898.38
2022-09-12T17:06:40.049Z,100886.13
2022-09-12T17:09:06.625Z,100891.34
2022-09-12T17:11:36.468Z,100899.00
2022-09-12T17:14:06.977Z,100899.75
2022-09-12T17:16:36.504Z,100899.13
2022-09-12T17:19:03.430Z,100895.84
2022-09-12T17:21:30.133Z,100891.50
2022-09-12T17:23:56.856Z,100890.66
2022-09-12T17:26:23.439Z,100892.66
2022-09-12T17:28:50.161Z,100889.13
2022-09-12T17:31:17.339Z,100893.22
2022-09-12T17:33:43.929Z,100890.72
2022-09-12T17:36:16.370Z,100890.09
2022-09-12T17:38:44.825Z,100880.72
2022-09-12T17:41:23.703Z,100889.88
2022-09-12T17:43:58.886Z,100880.50
2022-09-12T17:46:32.861Z,100875.59
2022-09-12T17:49:01.047Z,100885.75
2022-09-12T17:51:31.200Z,100886.72
2022-09-12T17:53:59.240Z,100881.00
2022-09-12T17:56:27.998Z,100884.56
2022-09-12T17:58:56.430Z,100888.19
2022-09-12T18:01:42.106Z,100876.16
2022-09-12T18:04:08.849Z,100870.22
2022-09-12T18:06:35.632Z,100866.66
2022-09-12T18:09:05.406Z,100862.56
2022-09-12T18:11:32.997Z,100858.47
2022-09-12T18:14:00.117Z,100864.69
2022-09-12T18:16:28.538Z,100863.47
2022-09-12T18:18:55.685Z,100868.84
2022-09-12T18:21:22.252Z,100864.53
2022-09-12T18:23:48.814Z,100864.41
2022-09-12T18:26:15.457Z,100867.97
2022-09-12T18:28:44.235Z,100866.25
2022-09-12T18:31:19.805Z,100875.09
2022-09-12T18:33:47.211Z,100872.56
2022-09-12T18:36:15.670Z,100868.22
2022-09-12T18:38:43.258Z,100865.69
2022-09-12T18:41:12.368Z,100855.63
2022-09-12T18:43:39.448Z,100867.88
2022-09-12T18:46:12.548Z,100872.25
2022-09-12T18:48:39.230Z,100866.06
2022-09-12T18:51:08.657Z,100876.25
2022-09-12T18:53:36.770Z,100874.88
2022-09-12T18:56:06.367Z,100875.56
2022-09-12T18:58:32.856Z,100876.81
2022-09-12T19:00:59.413Z,100878.09
2022-09-12T19:03:26.318Z,100870.06
2022-09-12T19:05:53.326Z,100877.03
2022-09-12T19:08:19.893Z,100877.91
2022-09-12T19:10:55.051Z,100868.06
2022-09-12T19:13:21.846Z,100867.69
2022-09-12T19:15:48.449Z,100861.28
2022-09-12T19:18:15.790Z,100859.88
2022-09-12T19:20:42.344Z,100853.03
2022-09-12T19:23:08.970Z,100852.66
2022-09-12T19:25:35.546Z,100851.06
2022-09-12T19:28:02.320Z,100849.69
2022-09-12T19:30:28.889Z,100843.03
2022-09-12T19:32:55.483Z,100847.94
2022-09-12T19:35:23.083Z,100849.66
2022-09-12T19:37:49.825Z,100847.28
2022-09-12T19:40:16.442Z,100842.44
2022-09-12T19:42:43.029Z,100838.88
2022-09-12T19:45:10.365Z,100838.28
2022-09-12T19:47:38.219Z,100837.13
2022-09-12T19:50:05.399Z,100849.16
2022-09-12T19:52:31.929Z,100843.28
2022-09-12T19:54:58.501Z,100837.25
2022-09-12T19:57:25.022Z,100834.47
2022-09-12T19:59:51.577Z,100832.84
2022-09-12T20:02:18.387Z,100823.56
2022-09-12T20:04:45.415Z,100823.81
2022-09-12T20:07:11.960Z,100821.59
2022-09-12T20:09:38.585Z,100807.66
2022-09-12T20:12:05.527Z,100804.44
2022-09-12T20:14:32.137Z,100800.44
2022-09-12T20:16:58.682Z,100799.84
2022-09-12T20:19:25.506Z,100803.16
2022-09-12T20:21:52.097Z,100801.97
2022-09-12T20:24:18.692Z,100801.03
2022-09-12T20:26:45.381Z,100793.81
2022-09-12T20:29:12.129Z,100791.03
2022-09-12T20:31:40.951Z,100791.72
2022-09-12T20:34:10.529Z,100786.31
2022-09-12T20:36:37.074Z,100786.53
2022-09-12T20:39:03.769Z,100786.16
2022-09-12T20:41:33.268Z,100784.78
2022-09-12T20:44:00.135Z,100781.81
2022-09-12T20:46:28.086Z,100780.03
2022-09-12T20:48:55.089Z,100777.63
2022-09-12T20:51:22.546Z,100781.75
2022-09-12T20:53:53.416Z,100771.06
2022-09-12T20:56:20.298Z,100778.97
2022-09-12T20:58:46.887Z,100779.38
2022-09-12T21:01:15.976Z,100775.38
2022-09-12T21:03:43.969Z,100771.50
2022-09-12T21:06:14.794Z,100770.94
2022-09-12T21:08:41.386Z,100768.94
2022-09-12T21:11:07.999Z,100761.72
2022-09-12T21:13:35.152Z,100762.75
2022-09-12T21:16:21.998Z,100748.81
2022-09-12T21:18:54.999Z,100758.28
2022-09-12T21:21:22.080Z,100758.53
2022-09-12T21:23:50.614Z,100763.34
2022-09-12T21:26:18.319Z,100753.41
2022-09-12T21:28:44.995Z,100754.22
2022-09-12T21:31:11.606Z,100755.59
2022-09-12T21:33:38.346Z,100763.03
2022-09-12T21:36:06.681Z,100755.16
2022-09-12T21:38:33.896Z,100757.56
2022-09-12T21:41:15.034Z,100759.97
2022-09-12T21:43:43.227Z,100756.53
2022-09-12T21:46:11.060Z,100749.66
2022-09-12T21:48:37.778Z,100746.47
2022-09-12T21:51:04.654Z,100743.47
2022-09-12T21:53:32.147Z,100749.97
2022-09-12T21:56:07.857Z,100761.16
2022-09-12T21:58:34.943Z,100772.31
2022-09-12T22:01:02.019Z,100766.47
2022-09-12T22:03:29.258Z,100764.28
2022-09-12T22:06:00.533Z,100765.66
2022-09-12T22:08:29.374Z,100772.75
2022-09-12T22:11:07.995Z,100770.13
2022-09-12T22:13:35.611Z,100763.28
2022-09-12T22:16:03.519Z,100756.16
2022-09-12T22:18:32.422Z,100753.19
2022-09-12T22:21:05.000Z,100759.47
2022-09-12T22:23:50.823Z,100763.13
2022-09-12T22:26:17.546Z,100759.91
2022-09-12T22:28:44.166Z,100768.00
2022-09-12T22:31:12.654Z,100759.09
2022-09-12T22:33:40.112Z,100745.38
2022-09-12T22:36:07.376Z,100754.84
2022-09-12T22:38:34.002Z,100743.56
2022-09-12T22:41:10.361Z,100742.75
2022-09-12T22:43:37.624Z,100726.19
2022-09-12T22:46:12.532Z,100731.22
2022-09-12T22:48:39.809Z,100740.94
2022-09-12T22:51:07.418Z,100742.75
2022-09-12T22:53:35.230Z,100741.72
2022-09-12T22:56:02.388Z,100745.75
2022-09-12T22:58:29.029Z,100751.22
2022-09-12T23:00:55.527Z,100736.25
2022-09-12T23:03:23.663Z,100741.28
2022-09-12T23:05:50.226Z,100743.69
2022-09-12T23:08:19.318Z,100748.94
2022-09-12T23:10:46.049Z,100757.44
2022-09-12T23:13:12.885Z,100744.31
2022-09-12T23:15:39.479Z,100739.81
2022-09-12T23:18:06.005Z,100739.63
2022-09-12T23:20:59.587Z,100748.91
2022-09-12T23:23:26.659Z,100738.16
2022-09-12T23:26:05.054Z,100731.84
2022-09-12T23:28:32.237Z,100730.84
2022-09-12T23:31:00.264Z,100732.47
2022-09-12T23:33:30.698Z,100735.09
2022-09-12T23:36:01.793Z,100733.25
2022-09-12T23:38:32.471Z,100728.81
2022-09-12T23:41:00.335Z,100724.34
2022-09-12T23:43:27.601Z,100720.69
2022-09-12T23:45:54.183Z,100712.22
2022-09-12T23:48:20.901Z,100720.09
2022-09-12T23:50:48.780Z,100719.34
2022-09-12T23:53:17.645Z,100717.47
2022-09-12T23:55:47.865Z,100714.06
2022-09-12T23:58:16.578Z,100714.84
